createdAt,value
2023-01-25T00:00:00.832Z,3.11
2023-01-25T00:02:27.905Z,3.08
2023-01-25T00:04:54.785Z,3.10
2023-01-25T00:07:21.235Z,3.08
2023-01-25T00:09:47.690Z,3.06
2023-01-25T00:12:14.262Z,3.05
2023-01-25T00:14:40.774Z,2.98
2023-01-25T00:17:07.249Z,2.97
2023-01-25T00:19:33.878Z,2.95
2023-01-25T00:22:00.369Z,2.96
2023-01-25T00:24:27.226Z,2.94
2023-01-25T00:26:53.754Z,2.93
2023-01-25T00:29:20.153Z,2.88
2023-01-25T00:31:49.437Z,2.91
2023-01-25T00:34:42.205Z,2.88
2023-01-25T00:37:25.306Z,2.90
2023-01-25T00:39:52.175Z,2.86
2023-01-25T00:42:20.148Z,2.80
2023-01-25T00:44:47.618Z,2.81
2023-01-25T00:47:15.467Z,2.73
2023-01-25T00:49:43.096Z,2.81
2023-01-25T00:52:13.193Z,2.78
2023-01-25T00:54:40.280Z,2.59
2023-01-25T00:57:08.244Z,2.62
2023-01-25T00:59:34.692Z,2.62
2023-01-25T01:02:01.468Z,2.58
2023-01-25T01:04:28.044Z,2.51
2023-01-25T01:06:55.226Z,2.50
2023-01-25T01:09:23.494Z,2.56
2023-01-25T01:11:50.214Z,2.53
2023-01-25T01:14:16.713Z,2.43
2023-01-25T01:16:43.143Z,2.32
2023-01-25T01:19:10.764Z,2.37
2023-01-25T01:21:37.344Z,2.38
2023-01-25T01:24:04.370Z,2.23
2023-01-25T01:26:30.781Z,2.23
2023-01-25T01:28:58.920Z,2.33
2023-01-25T01:31:25.453Z,2.36
2023-01-25T01:33:53.910Z,2.41
2023-01-25T01:36:25.957Z,2.40
2023-01-25T01:38:52.909Z,2.27
2023-01-25T01:41:20.047Z,2.37
2023-01-25T01:43:46.894Z,2.36
2023-01-25T01:46:34.417Z,2.39
2023-01-25T01:49:12.352Z,2.37
2023-01-25T01:51:56.236Z,2.38
2023-01-25T01:54:35.275Z,2.35
2023-01-25T01:57:10.528Z,2.34
2023-01-25T01:59:44.577Z,2.37
2023-01-25T02:02:11.441Z,2.35
2023-01-25T02:04:38.031Z,2.36
2023-01-25T02:07:11.658Z,2.32
2023-01-25T02:09:38.090Z,2.32
2023-01-25T02:12:07.480Z,2.33
2023-01-25T02:14:34.661Z,2.36
2023-01-25T02:17:01.351Z,2.35
2023-01-25T02:19:50.158Z,2.36
2023-01-25T02:22:23.026Z,2.29
2023-01-25T02:25:10.081Z,2.31
2023-01-25T02:27:40.748Z,2.29
2023-01-25T02:30:08.811Z,2.26
2023-01-25T02:32:35.326Z,2.21
2023-01-25T02:35:02.019Z,2.21
2023-01-25T02:37:31.589Z,2.20
2023-01-25T02:39:58.021Z,2.21
2023-01-25T02:42:24.630Z,2.22
2023-01-25T02:44:52.310Z,2.21
2023-01-25T02:47:18.889Z,2.22
2023-01-25T02:49:45.301Z,2.19
2023-01-25T02:52:11.764Z,2.21
2023-01-25T02:54:38.222Z,2.20
2023-01-25T02:57:04.770Z,2.19
2023-01-25T02:59:31.132Z,2.19
2023-01-25T03:01:57.580Z,2.17
2023-01-25T03:04:24.701Z,2.14
2023-01-25T03:06:51.942Z,2.11
2023-01-25T03:09:18.425Z,2.11
2023-01-25T03:11:44.995Z,1.92
2023-01-25T03:14:11.462Z,2.06
2023-01-25T03:16:38.087Z,1.99
2023-01-25T03:19:04.581Z,1.88
2023-01-25T03:21:31.484Z,2.05
2023-01-25T03:24:01.458Z,2.03
2023-01-25T03:26:29.246Z,2.04
2023-01-25T03:28:55.739Z,2.04
2023-01-25T03:31:22.296Z,2.05
2023-01-25T03:33:49.714Z,2.02
2023-01-25T03:36:16.467Z,1.91
2023-01-25T03:38:43.145Z,1.88
2023-01-25T03:41:09.958Z,2.00
2023-01-25T03:43:36.379Z,2.00
2023-01-25T03:46:03.016Z,2.01
2023-01-25T03:48:29.708Z,2.02
2023-01-25T03:50:58.193Z,2.03
2023-01-25T03:53:29.991Z,1.87
2023-01-25T03:56:02.440Z,2.02
2023-01-25T03:58:30.316Z,1.95
2023-01-25T04:00:59.045Z,1.98
2023-01-25T04:03:26.184Z,1.87
2023-01-25T04:05:53.720Z,1.84
2023-01-25T04:08:20.624Z,1.90
2023-01-25T04:10:56.233Z,1.60
2023-01-25T04:13:24.970Z,1.84
2023-01-25T04:15:52.235Z,1.83
2023-01-25T04:18:19.421Z,1.74
2023-01-25T04:20:55.312Z,1.77
2023-01-25T04:23:22.728Z,1.77
2023-01-25T04:25:54.181Z,1.59
2023-01-25T04:28:20.943Z,1.76
2023-01-25T04:30:47.560Z,1.68
2023-01-25T04:33:14.612Z,1.69
2023-01-25T04:35:41.232Z,1.72
2023-01-25T04:38:07.831Z,1.71
2023-01-25T04:40:34.287Z,1.72
2023-01-25T04:43:00.721Z,1.71
2023-01-25T04:45:27.302Z,1.70
2023-01-25T04:48:05.792Z,1.71
2023-01-25T04:50:32.334Z,1.70
2023-01-25T04:52:58.844Z,1.70
2023-01-25T04:55:25.262Z,1.72
2023-01-25T04:57:51.836Z,1.61
2023-01-25T05:00:19.243Z,1.69
2023-01-25T05:02:45.771Z,1.67
2023-01-25T05:05:12.551Z,1.65
2023-01-25T05:07:39.390Z,1.60
2023-01-25T05:10:06.794Z,1.67
2023-01-25T05:12:33.483Z,1.68
2023-01-25T05:14:59.894Z,1.69
2023-01-25T05:17:26.436Z,1.68
2023-01-25T05:19:52.951Z,1.64
2023-01-25T05:22:20.962Z,1.71
2023-01-25T05:24:48.144Z,1.69
2023-01-25T05:27:17.655Z,1.67
2023-01-25T05:29:45.463Z,1.71
2023-01-25T05:32:17.937Z,1.70
2023-01-25T05:34:45.265Z,1.67
2023-01-25T05:37:14.351Z,1.70
2023-01-25T05:39:40.941Z,1.66
2023-01-25T05:42:18.342Z,1.66
2023-01-25T05:44:47.581Z,1.66
2023-01-25T05:47:16.351Z,1.67
2023-01-25T05:49:42.896Z,1.66
2023-01-25T05:52:14.896Z,1.62
2023-01-25T05:54:41.375Z,1.63
2023-01-25T05:57:07.945Z,1.64
2023-01-25T05:59:34.492Z,1.51
2023-01-25T06:02:01.161Z,1.62
2023-01-25T06:04:27.684Z,1.63
2023-01-25T06:06:54.110Z,1.59
2023-01-25T06:09:20.462Z,1.64
2023-01-25T06:11:46.914Z,1.63
2023-01-25T06:14:13.513Z,1.64
2023-01-25T06:16:40.145Z,1.63
2023-01-25T06:19:07.509Z,1.58
2023-01-25T06:21:37.752Z,1.62
2023-01-25T06:24:04.673Z,1.65
2023-01-25T06:26:31.349Z,1.56
2023-01-25T06:28:57.903Z,1.56
2023-01-25T06:31:24.466Z,1.41
2023-01-25T06:33:52.576Z,1.48
2023-01-25T06:36:20.207Z,1.51
2023-01-25T06:38:51.088Z,1.51
2023-01-25T06:41:18.354Z,1.55
2023-01-25T06:43:45.447Z,1.41
2023-01-25T06:46:12.611Z,1.44
2023-01-25T06:48:40.139Z,1.57
2023-01-25T06:51:08.623Z,1.57
2023-01-25T06:53:39.474Z,1.54
2023-01-25T06:56:10.905Z,1.58
2023-01-25T06:58:38.817Z,1.58
2023-01-25T07:01:12.456Z,1.58
2023-01-25T07:03:39.487Z,1.61
2023-01-25T07:06:07.929Z,1.63
2023-01-25T07:08:35.137Z,1.63
2023-01-25T07:11:04.323Z,1.60
2023-01-25T07:13:32.396Z,1.68
2023-01-25T07:16:01.556Z,1.69
2023-01-25T07:18:30.010Z,1.67
2023-01-25T07:21:13.686Z,1.64
2023-01-25T07:23:41.637Z,1.70
2023-01-25T07:26:17.683Z,1.71
2023-01-25T07:28:45.739Z,1.72
2023-01-25T07:31:12.518Z,1.59
2023-01-25T07:33:38.912Z,1.73
2023-01-25T07:36:07.937Z,1.72
2023-01-25T07:38:34.905Z,1.77
2023-01-25T07:41:01.552Z,1.76
2023-01-25T07:43:29.226Z,1.73
2023-01-25T07:46:01.866Z,1.76
2023-01-25T07:48:28.487Z,1.77
2023-01-25T07:51:20.529Z,1.74
2023-01-25T07:53:47.503Z,1.73
2023-01-25T07:56:14.076Z,1.74
2023-01-25T07:58:40.481Z,1.73
2023-01-25T08:01:18.302Z,1.73
2023-01-25T08:03:45.996Z,1.71
2023-01-25T08:06:12.823Z,1.74
2023-01-25T08:08:42.280Z,1.73
2023-01-25T08:11:18.192Z,1.70
2023-01-25T08:13:47.590Z,1.75
2023-01-25T08:16:14.811Z,1.81
2023-01-25T08:18:41.347Z,1.81
2023-01-25T08:21:08.538Z,1.78
2023-01-25T08:23:35.350Z,1.79
2023-01-25T08:26:04.739Z,1.76
2023-01-25T08:28:31.421Z,1.81
2023-01-25T08:31:16.583Z,1.83
2023-01-25T08:33:44.468Z,1.83
2023-01-25T08:36:11.073Z,1.63
2023-01-25T08:38:41.986Z,1.85
2023-01-25T08:41:15.782Z,1.88
2023-01-25T08:43:44.475Z,1.89
2023-01-25T08:46:11.267Z,1.86
2023-01-25T08:48:37.818Z,1.85
2023-01-25T08:51:04.460Z,1.85
2023-01-25T08:53:31.993Z,1.86
2023-01-25T08:56:12.159Z,1.89
2023-01-25T08:58:39.739Z,1.96
2023-01-25T09:01:08.760Z,1.93
2023-01-25T09:03:36.740Z,1.79
2023-01-25T09:06:03.309Z,1.96
2023-01-25T09:08:29.868Z,1.98
2023-01-25T09:11:01.433Z,1.98
2023-01-25T09:13:28.193Z,2.01
2023-01-25T09:16:06.708Z,2.04
2023-01-25T09:18:35.448Z,2.05
2023-01-25T09:21:10.324Z,2.05
2023-01-25T09:23:50.481Z,2.03
2023-01-25T09:26:18.952Z,2.07
2023-01-25T09:28:50.787Z,2.05
2023-01-25T09:31:22.033Z,2.08
2023-01-25T09:33:50.370Z,2.05
2023-01-25T09:36:17.073Z,2.03
2023-01-25T09:38:43.602Z,2.02
2023-01-25T09:41:21.888Z,2.04
2023-01-25T09:44:25.299Z,2.08
2023-01-25T09:46:56.078Z,1.91
2023-01-25T09:49:31.635Z,2.06
2023-01-25T09:51:58.226Z,2.08
2023-01-25T09:54:28.502Z,2.08
2023-01-25T09:56:57.348Z,2.09
2023-01-25T09:59:28.512Z,2.11
2023-01-25T10:02:05.746Z,2.15
2023-01-25T10:04:40.181Z,2.18
2023-01-25T10:07:18.644Z,2.22
2023-01-25T10:09:53.310Z,2.23
2023-01-25T10:12:23.767Z,2.25
2023-01-25T10:14:51.542Z,2.28
2023-01-25T10:17:40.406Z,2.31
2023-01-25T10:20:25.330Z,2.24
2023-01-25T10:23:08.381Z,2.30
2023-01-25T10:25:41.466Z,2.33
2023-01-25T10:28:24.640Z,2.33
2023-01-25T10:31:02.563Z,2.34
2023-01-25T10:33:34.854Z,2.32
2023-01-25T10:36:04.545Z,2.29
2023-01-25T10:38:45.370Z,2.30
2023-01-25T10:41:30.537Z,2.32
2023-01-25T10:44:15.801Z,2.31
2023-01-25T10:46:49.285Z,2.31
2023-01-25T10:49:22.030Z,2.31
2023-01-25T10:51:48.499Z,2.16
2023-01-25T10:54:16.580Z,2.31
2023-01-25T10:56:46.080Z,2.29
2023-01-25T10:59:23.609Z,2.33
2023-01-25T11:01:50.084Z,2.31
2023-01-25T11:04:35.185Z,2.31
2023-01-25T11:07:06.001Z,2.18
2023-01-25T11:09:34.045Z,2.22
2023-01-25T11:12:03.289Z,2.14
2023-01-25T11:14:32.167Z,2.06
2023-01-25T11:17:01.701Z,2.06
2023-01-25T11:19:32.776Z,2.10
2023-01-25T11:22:01.213Z,2.02
2023-01-25T11:24:33.449Z,2.01
2023-01-25T11:27:18.730Z,2.03
2023-01-25T11:29:47.126Z,1.99
2023-01-25T11:32:21.541Z,1.95
2023-01-25T11:34:50.159Z,1.97
2023-01-25T11:37:32.336Z,2.00
2023-01-25T11:40:13.120Z,1.89
2023-01-25T11:43:06.194Z,2.05
2023-01-25T11:45:55.373Z,2.08
2023-01-25T11:48:32.989Z,2.07
2023-01-25T11:51:07.110Z,1.95
2023-01-25T11:54:05.855Z,1.98
2023-01-25T11:56:57.207Z,2.11
2023-01-25T11:59:35.572Z,2.18
2023-01-25T12:02:02.711Z,2.15
2023-01-25T12:04:47.320Z,2.18
2023-01-25T12:07:37.163Z,2.14
2023-01-25T12:10:14.455Z,2.14
2023-01-25T12:13:11.338Z,2.18
2023-01-25T12:16:02.217Z,2.20
2023-01-25T12:18:37.733Z,2.18
2023-01-25T12:21:31.468Z,2.16
2023-01-25T12:24:25.811Z,2.22
2023-01-25T12:26:52.290Z,2.22
2023-01-25T12:29:18.740Z,2.24
2023-01-25T12:32:05.144Z,2.28
2023-01-25T12:34:41.376Z,2.23
2023-01-25T12:37:32.751Z,2.28
2023-01-25T12:40:04.841Z,2.25
2023-01-25T12:42:44.440Z,2.20
2023-01-25T12:45:25.225Z,2.01
2023-01-25T12:48:13.122Z,2.05
2023-01-25T12:50:49.614Z,2.08
2023-01-25T12:53:52.427Z,2.06
2023-01-25T12:57:09.752Z,2.07
2023-01-25T13:00:19.617Z,2.04
2023-01-25T13:03:06.839Z,2.09
2023-01-25T13:05:51.877Z,2.06
2023-01-25T13:08:34.524Z,2.07
2023-01-25T13:11:31.912Z,2.11
2023-01-25T13:14:16.707Z,2.12
2023-01-25T13:17:10.372Z,2.12
2023-01-25T13:19:37.499Z,2.14
2023-01-25T13:22:04.908Z,2.15
2023-01-25T13:24:55.317Z,2.10
2023-01-25T13:27:27.254Z,2.20
2023-01-25T13:29:59.369Z,2.19
2023-01-25T13:32:25.808Z,2.21
2023-01-25T13:34:52.205Z,2.17
2023-01-25T13:37:21.628Z,2.18
2023-01-25T13:40:07.767Z,2.11
2023-01-25T13:42:38.576Z,2.14
2023-01-25T13:45:15.725Z,1.96
2023-01-25T13:47:44.117Z,2.14
2023-01-25T13:50:25.863Z,2.15
2023-01-25T13:53:03.745Z,2.08
2023-01-25T13:55:39.681Z,2.01
2023-01-25T13:58:22.336Z,1.98
2023-01-25T14:01:08.585Z,2.00
2023-01-25T14:03:51.143Z,1.96
2023-01-25T14:06:22.207Z,1.92
2023-01-25T14:08:49.860Z,1.87
2023-01-25T14:11:22.451Z,1.83
2023-01-25T14:14:02.489Z,1.88
2023-01-25T14:16:31.052Z,1.88
2023-01-25T14:19:18.507Z,1.80
2023-01-25T14:21:44.909Z,1.79
2023-01-25T14:24:11.884Z,1.87
2023-01-25T14:26:41.946Z,1.83
2023-01-25T14:29:35.393Z,1.71
2023-01-25T14:32:03.042Z,1.68
2023-01-25T14:34:29.541Z,1.72
2023-01-25T14:37:18.566Z,1.92
2023-01-25T14:39:46.131Z,1.92
2023-01-25T14:42:12.998Z,1.89
2023-01-25T14:44:40.096Z,1.95
2023-01-25T14:47:30.068Z,1.98
2023-01-25T14:50:35.572Z,2.00
2023-01-25T14:53:23.611Z,2.00
2023-01-25T14:55:51.125Z,1.99
2023-01-25T14:58:20.970Z,1.92
2023-01-25T15:01:02.238Z,1.94
2023-01-25T15:03:30.797Z,1.99
2023-01-25T15:06:02.942Z,1.98
2023-01-25T15:08:37.162Z,1.89
2023-01-25T15:11:22.464Z,1.79
2023-01-25T15:13:49.016Z,1.92
2023-01-25T15:16:16.460Z,1.94
2023-01-25T15:18:43.174Z,1.90
2023-01-25T15:21:17.215Z,1.88
2023-01-25T15:23:45.974Z,1.88
2023-01-25T15:26:25.892Z,1.81
2023-01-25T15:28:55.675Z,1.91
2023-01-25T15:31:26.334Z,1.82
2023-01-25T15:33:53.334Z,1.87
2023-01-25T15:36:20.286Z,1.88
2023-01-25T15:38:46.824Z,1.84
2023-01-25T15:41:14.197Z,1.86
2023-01-25T15:43:41.304Z,1.84
2023-01-25T15:46:16.980Z,1.85
2023-01-25T15:48:45.342Z,1.80
2023-01-25T15:51:12.996Z,1.72
2023-01-25T15:53:40.155Z,1.69
2023-01-25T15:56:13.007Z,1.75
2023-01-25T15:58:41.735Z,1.70
2023-01-25T16:01:08.758Z,1.74
2023-01-25T16:03:35.716Z,1.75
2023-01-25T16:06:16.897Z,1.65
2023-01-25T16:08:43.500Z,1.71
2023-01-25T16:11:10.067Z,1.80
2023-01-25T16:13:36.855Z,1.79
2023-01-25T16:16:03.606Z,1.66
2023-01-25T16:18:30.176Z,1.71
2023-01-25T16:20:56.603Z,1.73
2023-01-25T16:23:22.996Z,1.71
2023-01-25T16:25:49.463Z,1.65
2023-01-25T16:28:16.257Z,1.62
2023-01-25T16:30:45.031Z,1.61
2023-01-25T16:33:11.858Z,1.55
2023-01-25T16:35:38.533Z,1.49
2023-01-25T16:38:05.123Z,1.28
2023-01-25T16:40:39.719Z,1.35
2023-01-25T16:43:06.482Z,1.45
2023-01-25T16:45:33.044Z,1.46
2023-01-25T16:48:00.015Z,1.28
2023-01-25T16:50:26.530Z,1.40
2023-01-25T16:52:54.733Z,1.41
2023-01-25T16:55:21.162Z,1.42
2023-01-25T16:57:51.321Z,1.44
2023-01-25T17:00:17.894Z,1.53
2023-01-25T17:02:58.199Z,1.44
2023-01-25T17:05:29.219Z,1.41
2023-01-25T17:07:55.955Z,1.46
2023-01-25T17:10:23.560Z,1.46
2023-01-25T17:12:50.564Z,1.45
2023-01-25T17:15:19.866Z,1.45
2023-01-25T17:17:46.558Z,1.41
2023-01-25T17:20:13.103Z,1.40
2023-01-25T17:22:40.508Z,1.30
2023-01-25T17:25:07.317Z,1.38
2023-01-25T17:27:33.749Z,1.38
2023-01-25T17:30:00.184Z,1.29
2023-01-25T17:32:26.628Z,1.13
2023-01-25T17:34:53.770Z,1.24
2023-01-25T17:37:20.335Z,1.13
2023-01-25T17:39:47.635Z,1.16
2023-01-25T17:42:14.587Z,1.21
2023-01-25T17:44:41.201Z,1.23
2023-01-25T17:47:07.596Z,1.22
2023-01-25T17:49:34.148Z,1.01
2023-01-25T17:52:02.232Z,1.13
2023-01-25T17:54:28.851Z,1.25
2023-01-25T17:56:55.535Z,1.21
2023-01-25T17:59:22.052Z,1.27
2023-01-25T18:01:48.607Z,1.29
2023-01-25T18:04:18.098Z,1.19
2023-01-25T18:06:44.766Z,1.23
2023-01-25T18:09:11.257Z,1.19
2023-01-25T18:11:40.795Z,1.21
2023-01-25T18:14:12.803Z,1.13
2023-01-25T18:16:40.729Z,1.21
2023-01-25T18:19:07.975Z,1.16
2023-01-25T18:21:35.006Z,1.14
2023-01-25T18:24:23.428Z,1.20
2023-01-25T18:26:50.858Z,1.10
2023-01-25T18:29:17.265Z,1.07
2023-01-25T18:31:44.230Z,1.01
2023-01-25T18:34:10.716Z,0.93
2023-01-25T18:36:37.266Z,0.96
2023-01-25T18:39:06.770Z,0.97
2023-01-25T18:41:33.267Z,0.91
2023-01-25T18:43:59.923Z,0.70
2023-01-25T18:46:26.321Z,0.83
2023-01-25T18:48:52.726Z,0.92
2023-01-25T18:51:19.254Z,0.92
2023-01-25T18:53:49.122Z,0.91
2023-01-25T18:56:21.208Z,0.94
2023-01-25T18:58:48.576Z,0.94
2023-01-25T19:01:21.111Z,0.96
2023-01-25T19:03:49.599Z,0.99
2023-01-25T19:06:16.942Z,0.98
2023-01-25T19:08:46.334Z,0.97
2023-01-25T19:11:15.972Z,0.82
2023-01-25T19:13:44.132Z,0.92
2023-01-25T19:16:24.529Z,0.96
2023-01-25T19:18:53.615Z,0.96
2023-01-25T19:21:22.820Z,0.97
2023-01-25T19:23:50.046Z,0.96
2023-01-25T19:26:19.101Z,0.94
2023-01-25T19:28:46.969Z,0.90
2023-01-25T19:31:24.770Z,0.89
2023-01-25T19:33:56.176Z,0.90
2023-01-25T19:36:23.175Z,0.89
2023-01-25T19:38:49.899Z,0.87
2023-01-25T19:41:21.440Z,0.85
2023-01-25T19:43:52.106Z,0.89
2023-01-25T19:46:20.763Z,0.91
2023-01-25T19:48:50.051Z,0.90
2023-01-25T19:51:22.532Z,0.92
2023-01-25T19:54:15.187Z,0.97
2023-01-25T19:56:43.125Z,0.94
2023-01-25T19:59:15.453Z,0.97
2023-01-25T20:01:43.889Z,0.91
2023-01-25T20:04:17.412Z,0.87
2023-01-25T20:06:43.826Z,0.91
2023-01-25T20:09:12.898Z,0.95
2023-01-25T20:11:40.733Z,0.84
2023-01-25T20:14:08.006Z,0.93
2023-01-25T20:16:35.343Z,0.87
2023-01-25T20:19:03.005Z,0.94
2023-01-25T20:21:31.065Z,0.96
2023-01-25T20:24:02.337Z,0.91
2023-01-25T20:26:34.797Z,0.98
2023-01-25T20:29:01.301Z,0.97
2023-01-25T20:31:33.752Z,1.01
2023-01-25T20:34:03.676Z,1.01
2023-01-25T20:36:31.569Z,1.00
2023-01-25T20:38:58.133Z,0.96
2023-01-25T20:41:25.019Z,1.00
2023-01-25T20:44:06.961Z,0.94
2023-01-25T20:46:34.663Z,0.85
2023-01-25T20:49:03.230Z,1.04
2023-01-25T20:51:29.954Z,1.08
2023-01-25T20:53:56.964Z,0.98
2023-01-25T20:56:23.860Z,1.10
2023-01-25T20:58:51.367Z,1.02
2023-01-25T21:01:28.237Z,1.14
2023-01-25T21:03:56.863Z,1.12
2023-01-25T21:06:24.958Z,1.11
2023-01-25T21:08:51.455Z,1.14
2023-01-25T21:11:18.038Z,1.17
2023-01-25T21:13:44.498Z,1.19
2023-01-25T21:16:15.118Z,1.19
2023-01-25T21:18:52.702Z,1.14
2023-01-25T21:21:21.876Z,1.15
2023-01-25T21:23:50.483Z,1.07
2023-01-25T21:26:20.264Z,1.18
2023-01-25T21:28:47.826Z,1.12
2023-01-25T21:31:20.174Z,1.17
2023-01-25T21:33:47.521Z,1.17
2023-01-25T21:36:15.830Z,1.16
2023-01-25T21:38:44.044Z,0.99
2023-01-25T21:41:13.096Z,1.12
2023-01-25T21:43:58.309Z,1.14
2023-01-25T21:46:26.963Z,1.07
2023-01-25T21:49:12.527Z,1.10
2023-01-25T21:51:46.976Z,0.93
2023-01-25T21:54:21.679Z,1.03
2023-01-25T21:56:50.141Z,1.01
2023-01-25T21:59:17.059Z,1.02
2023-01-25T22:01:44.245Z,1.00
2023-01-25T22:04:12.143Z,1.01
2023-01-25T22:06:38.907Z,1.00
2023-01-25T22:09:06.157Z,0.96
2023-01-25T22:11:32.958Z,1.00
2023-01-25T22:14:00.983Z,0.98
2023-01-25T22:16:29.297Z,1.02
2023-01-25T22:18:56.459Z,0.98
2023-01-25T22:21:25.635Z,1.01
2023-01-25T22:23:52.747Z,1.04
2023-01-25T22:26:21.307Z,0.98
2023-01-25T22:28:56.162Z,0.98
2023-01-25T22:31:24.872Z,1.03
2023-01-25T22:33:53.024Z,1.03
2023-01-25T22:36:21.765Z,0.99
2023-01-25T22:38:48.655Z,1.00
2023-01-25T22:41:24.666Z,1.07
2023-01-25T22:43:52.931Z,1.03
2023-01-25T22:46:21.479Z,1.09
2023-01-25T22:48:48.447Z,1.10
2023-01-25T22:51:26.692Z,1.13
2023-01-25T22:53:54.328Z,1.03
2023-01-25T22:56:24.132Z,1.16
2023-01-25T22:58:51.560Z,1.07
2023-01-25T23:01:23.863Z,1.15
2023-01-25T23:03:51.241Z,1.13
2023-01-25T23:06:26.570Z,1.17
2023-01-25T23:08:59.737Z,1.18
2023-01-25T23:11:32.181Z,1.11
2023-01-25T23:14:17.941Z,1.19
2023-01-25T23:16:44.606Z,1.20
2023-01-25T23:19:11.267Z,1.22
2023-01-25T23:21:37.854Z,1.21
2023-01-25T23:24:04.632Z,1.23
2023-01-25T23:26:37.554Z,1.13
2023-01-25T23:29:06.815Z,1.27
2023-01-25T23:31:33.365Z,1.27
2023-01-25T23:34:02.228Z,1.20
2023-01-25T23:36:38.774Z,1.20
2023-01-25T23:39:05.340Z,1.14
2023-01-25T23:41:32.220Z,1.05
2023-01-25T23:43:59.620Z,1.19
2023-01-25T23:46:27.452Z,0.96
2023-01-25T23:48:54.042Z,1.12
2023-01-25T23:51:20.472Z,1.16
2023-01-25T23:53:47.381Z,1.15
2023-01-25T23:56:16.906Z,1.18
2023-01-25T23:58:44.338Z,1.15
